Lansing, Michigan
Current Conditions -  °F | °C
As of 11:53 AM on Wednesday 22 Oct 2014 (Local Time) from KLAN Reporting Station
Overcast Overcast  
Wind Chill: 41°   Ceiling: 1700
Heat Index: 46°   Visibility: 10mi
Dew Point: 38°   Wind: 9mph
Humidity: 73%   Direction: 70°ENE
Pressure: 30.37"   Gusts: NA
Location:  42.73°N, 84.55°W
Report Text: KLAN 221553Z 07008KT 10SM OVC017 08/03 A3037 RMK AO2 SLP292 T00780033
Loading
Personal Weather Stations






























Interactive Weather Map
Tropical Storm Tracking
New forecast layout! Learn more

10-Day Weather Forecast

Advertisements
Track Severe Weather on mobile